createdAt,value
2023-04-05T00:00:54.585Z,4.05
2023-04-05T00:03:21.123Z,4.22
2023-04-05T00:05:50.078Z,3.40
2023-04-05T00:08:26.836Z,4.40
2023-04-05T00:10:53.695Z,4.80
2023-04-05T00:13:20.363Z,4.22
2023-04-05T00:15:47.491Z,5.00
2023-04-05T00:18:21.705Z,4.72
2023-04-05T00:20:49.045Z,3.40
2023-04-05T00:23:16.673Z,4.95
2023-04-05T00:25:43.665Z,3.40
2023-04-05T00:28:10.410Z,4.55
2023-04-05T00:30:36.697Z,5.00
2023-04-05T00:33:03.104Z,5.30
2023-04-05T00:35:29.543Z,3.60
2023-04-05T00:37:56.356Z,5.10
2023-04-05T00:40:23.135Z,4.53
2023-04-05T00:42:49.417Z,4.20
2023-04-05T00:45:15.832Z,4.28
2023-04-05T00:47:42.571Z,4.95
2023-04-05T00:50:09.594Z,5.00
2023-04-05T00:52:37.874Z,4.00
2023-04-05T00:55:05.988Z,4.20
2023-04-05T00:57:34.188Z,3.72
2023-04-05T01:00:01.239Z,4.60
2023-04-05T01:02:36.651Z,3.65
2023-04-05T01:05:05.258Z,3.40
2023-04-05T01:07:35.927Z,4.38
2023-04-05T01:10:05.473Z,4.30
2023-04-05T01:12:33.126Z,4.10
2023-04-05T01:15:00.049Z,4.78
2023-04-05T01:17:36.604Z,5.10
2023-04-05T01:20:10.452Z,4.15
2023-04-05T01:22:46.011Z,4.25
2023-04-05T01:25:31.176Z,3.67
2023-04-05T01:28:16.503Z,4.20
2023-04-05T01:30:44.269Z,4.85
2023-04-05T01:33:13.590Z,4.38
2023-04-05T01:35:42.904Z,3.45
2023-04-05T01:38:11.691Z,4.03
2023-04-05T01:40:38.699Z,3.15
2023-04-05T01:43:15.268Z,3.47
2023-04-05T01:45:42.038Z,3.92
2023-04-05T01:48:08.408Z,4.35
2023-04-05T01:50:34.678Z,3.58
2023-04-05T01:53:00.978Z,3.53
2023-04-05T01:55:27.315Z,3.25
2023-04-05T01:57:54.162Z,3.55
2023-04-05T02:00:20.711Z,3.58
2023-04-05T02:02:47.210Z,3.72
2023-04-05T02:05:13.596Z,3.00
2023-04-05T02:07:39.881Z,4.25
2023-04-05T02:10:06.483Z,3.75
2023-04-05T02:12:32.786Z,3.97
2023-04-05T02:14:59.092Z,3.70
2023-04-05T02:17:25.449Z,3.40
2023-04-05T02:19:53.089Z,4.85
2023-04-05T02:22:19.509Z,3.13
2023-04-05T02:24:45.910Z,3.80
2023-04-05T02:27:12.230Z,2.97
2023-04-05T02:29:38.616Z,3.00
2023-04-05T02:32:05.079Z,3.50
2023-04-05T02:34:31.666Z,5.10
2023-04-05T02:36:58.918Z,4.20
2023-04-05T02:39:25.253Z,4.93
2023-04-05T02:41:51.538Z,4.20
2023-04-05T02:44:17.926Z,3.42
2023-04-05T02:46:44.203Z,4.30
2023-04-05T02:49:10.679Z,4.10
2023-04-05T02:51:37.079Z,4.78
2023-04-05T02:54:03.409Z,3.63
2023-04-05T02:56:30.177Z,4.32
2023-04-05T02:58:56.471Z,5.28
2023-04-05T03:01:22.886Z,5.65
2023-04-05T03:03:49.318Z,4.15
2023-04-05T03:06:15.603Z,4.90
2023-04-05T03:08:46.491Z,3.92
2023-04-05T03:11:13.207Z,5.53
2023-04-05T03:13:39.498Z,4.30
2023-04-05T03:16:06.059Z,4.60
2023-04-05T03:18:32.347Z,4.97
2023-04-05T03:20:59.011Z,3.67
2023-04-05T03:23:28.219Z,3.83
2023-04-05T03:25:56.240Z,4.63
2023-04-05T03:28:23.513Z,5.38
2023-04-05T03:30:50.250Z,4.25
2023-04-05T03:33:16.630Z,5.00
2023-04-05T03:35:43.231Z,3.95
2023-04-05T03:38:09.898Z,5.03
2023-04-05T03:40:36.257Z,4.65
2023-04-05T03:43:02.996Z,4.25
2023-04-05T03:45:31.993Z,7.15
2023-04-05T03:47:58.352Z,4.82
2023-04-05T03:50:26.403Z,5.88
2023-04-05T03:52:53.172Z,5.32
2023-04-05T03:55:19.455Z,4.63
2023-04-05T03:57:45.769Z,4.45
2023-04-05T04:00:14.410Z,5.55
2023-04-05T04:02:42.263Z,4.65
2023-04-05T04:05:08.711Z,5.03
2023-04-05T04:07:35.267Z,4.50
2023-04-05T04:10:01.595Z,4.20
2023-04-05T04:12:27.890Z,5.03
2023-04-05T04:14:54.221Z,4.40
2023-04-05T04:17:26.316Z,3.97
2023-04-05T04:19:52.675Z,4.57
2023-04-05T04:22:20.704Z,4.82
2023-04-05T04:24:50.021Z,4.88
2023-04-05T04:27:19.978Z,4.47
2023-04-05T04:29:49.237Z,4.47
2023-04-05T04:32:15.922Z,4.97
2023-04-05T04:34:46.532Z,4.40
2023-04-05T04:37:18.496Z,5.43
2023-04-05T04:39:46.331Z,5.03
2023-04-05T04:42:12.942Z,4.68
2023-04-05T04:44:42.488Z,4.30
2023-04-05T04:47:14.838Z,3.83
2023-04-05T04:49:41.638Z,5.22
2023-04-05T04:52:07.997Z,4.55
2023-04-05T04:54:35.400Z,5.05
2023-04-05T04:57:04.721Z,4.32
2023-04-05T04:59:31.777Z,5.47
2023-04-05T05:01:58.115Z,3.88
2023-04-05T05:04:24.434Z,5.35
2023-04-05T05:06:52.476Z,4.10
2023-04-05T05:09:18.795Z,4.57
2023-04-05T05:11:45.072Z,4.13
2023-04-05T05:14:11.381Z,5.28
2023-04-05T05:16:38.644Z,4.55
2023-04-05T05:19:05.050Z,3.80
2023-04-05T05:21:31.453Z,4.22
2023-04-05T05:23:58.132Z,4.82
2023-04-05T05:26:24.423Z,4.75
2023-04-05T05:28:51.081Z,4.60
2023-04-05T05:31:17.966Z,4.75
2023-04-05T05:33:49.405Z,4.97
2023-04-05T05:36:15.929Z,5.35
2023-04-05T05:38:43.526Z,4.78
2023-04-05T05:41:10.299Z,5.50
2023-04-05T05:43:36.570Z,5.63
2023-04-05T05:46:02.995Z,4.40
2023-04-05T05:48:29.304Z,4.43
2023-04-05T05:50:56.324Z,3.88
2023-04-05T05:53:22.832Z,5.60
2023-04-05T05:55:49.075Z,6.07
2023-04-05T05:58:15.909Z,5.63
2023-04-05T06:00:42.768Z,4.90
2023-04-05T06:03:09.919Z,4.57
2023-04-05T06:05:36.345Z,5.10
2023-04-05T06:08:03.870Z,4.50
2023-04-05T06:10:30.665Z,5.72
2023-04-05T06:12:56.992Z,5.70
2023-04-05T06:15:23.245Z,5.22
2023-04-05T06:17:49.596Z,6.32
2023-04-05T06:20:16.494Z,5.93
2023-04-05T06:22:44.351Z,5.15
2023-04-05T06:25:12.300Z,6.13
2023-04-05T06:27:38.623Z,5.53
2023-04-05T06:30:05.341Z,6.10
2023-04-05T06:32:31.725Z,5.13
2023-04-05T06:34:58.089Z,5.35
2023-04-05T06:37:24.590Z,5.78
2023-04-05T06:39:50.892Z,6.47
2023-04-05T06:42:17.194Z,6.07
2023-04-05T06:44:43.523Z,5.45
2023-04-05T06:47:10.041Z,5.60
2023-04-05T06:49:36.343Z,5.05
2023-04-05T06:52:05.786Z,5.95
2023-04-05T06:54:37.506Z,5.43
2023-04-05T06:57:03.850Z,6.72
2023-04-05T06:59:30.376Z,5.22
2023-04-05T07:01:56.718Z,4.57
2023-04-05T07:04:23.246Z,7.20
2023-04-05T07:06:49.695Z,5.18
2023-04-05T07:09:16.132Z,5.45
2023-04-05T07:11:42.584Z,5.70
2023-04-05T07:14:08.902Z,5.88
2023-04-05T07:16:35.588Z,5.63
2023-04-05T07:19:01.994Z,7.55
2023-04-05T07:21:28.368Z,6.47
2023-04-05T07:23:56.087Z,5.75
2023-04-05T07:26:22.950Z,5.60
2023-04-05T07:28:49.264Z,5.95
2023-04-05T07:31:16.522Z,5.53
2023-04-05T07:33:42.794Z,5.20
2023-04-05T07:36:09.347Z,6.32
2023-04-05T07:38:35.836Z,5.43
2023-04-05T07:41:02.131Z,7.00
2023-04-05T07:43:28.394Z,6.18
2023-04-05T07:46:02.679Z,4.43
2023-04-05T07:48:29.432Z,3.78
2023-04-05T07:50:55.783Z,4.50
2023-04-05T07:53:22.092Z,5.82
2023-04-05T07:55:49.948Z,4.53
2023-04-05T07:58:16.309Z,4.90
2023-04-05T08:00:43.016Z,4.00
2023-04-05T08:03:09.578Z,4.20
2023-04-05T08:05:35.966Z,6.45
2023-04-05T08:08:02.313Z,4.65
2023-04-05T08:10:28.614Z,5.95
2023-04-05T08:12:55.109Z,7.43
2023-04-05T08:15:21.459Z,5.35
2023-04-05T08:17:47.792Z,4.85
2023-04-05T08:20:14.171Z,4.18
2023-04-05T08:22:40.504Z,4.40
2023-04-05T08:25:07.203Z,5.72
2023-04-05T08:27:33.537Z,6.22
2023-04-05T08:29:59.851Z,5.60
2023-04-05T08:32:26.311Z,8.98
2023-04-05T08:34:52.668Z,5.47
2023-04-05T08:37:18.947Z,6.57
2023-04-05T08:39:45.251Z,8.55
2023-04-05T08:42:14.214Z,9.27
2023-04-05T08:44:41.223Z,11.05
2023-04-05T08:47:08.781Z,13.20
2023-04-05T08:49:35.174Z,13.98
2023-04-05T08:52:02.072Z,15.20
2023-04-05T08:54:28.451Z,13.10
2023-04-05T08:56:56.526Z,17.27
2023-04-05T08:59:23.483Z,19.15
2023-04-05T09:01:50.252Z,20.48
2023-04-05T09:04:24.193Z,21.92
2023-04-05T09:06:51.228Z,17.48
2023-04-05T09:09:21.217Z,18.73
2023-04-05T09:11:48.430Z,23.10
2023-04-05T09:14:15.256Z,21.38
2023-04-05T09:16:42.860Z,20.63
2023-04-05T09:19:10.392Z,21.05
2023-04-05T09:21:55.590Z,20.23
2023-04-05T09:24:36.738Z,19.92
2023-04-05T09:27:03.586Z,22.88
2023-04-05T09:29:30.586Z,23.55
2023-04-05T09:31:56.891Z,19.90
2023-04-05T09:34:24.057Z,22.50
2023-04-05T09:36:50.732Z,21.15
2023-04-05T09:39:21.627Z,23.30
2023-04-05T09:42:05.155Z,21.90
2023-04-05T09:45:05.963Z,23.90
2023-04-05T09:47:34.620Z,19.98
2023-04-05T09:50:01.669Z,22.42
2023-04-05T09:52:29.400Z,23.02
2023-04-05T09:54:56.795Z,20.70
2023-04-05T09:57:23.827Z,19.63
2023-04-05T09:59:50.310Z,22.35
2023-04-05T10:02:16.781Z,19.35
2023-04-05T10:04:44.701Z,21.17
2023-04-05T10:07:13.436Z,20.35
2023-04-05T10:09:40.719Z,21.08
2023-04-05T10:12:11.461Z,21.42
2023-04-05T10:14:38.502Z,22.50
2023-04-05T10:17:23.386Z,22.52
2023-04-05T10:19:58.902Z,19.00
2023-04-05T10:22:31.889Z,18.13
2023-04-05T10:25:00.849Z,19.27
2023-04-05T10:27:37.446Z,20.80
2023-04-05T10:30:05.892Z,18.45
2023-04-05T10:32:41.470Z,17.33
2023-04-05T10:35:17.893Z,17.07
2023-04-05T10:40:11.750Z,17.95
2023-04-05T10:42:43.218Z,18.40
2023-04-05T10:45:11.630Z,15.70
2023-04-05T10:47:42.614Z,17.70
2023-04-05T10:50:09.372Z,17.10
2023-04-05T10:52:36.626Z,23.83
2023-04-05T10:55:03.547Z,18.63
2023-04-05T10:57:30.330Z,14.95
2023-04-05T10:59:58.717Z,14.95
2023-04-05T11:02:25.366Z,13.38
2023-04-05T11:04:56.580Z,16.95
2023-04-05T11:07:22.953Z,16.15
2023-04-05T11:10:02.450Z,13.65
2023-04-05T11:12:47.008Z,15.15
2023-04-05T11:15:32.672Z,14.88
2023-04-05T11:18:12.789Z,19.52
2023-04-05T11:20:42.818Z,14.23
2023-04-05T11:23:09.984Z,15.48
2023-04-05T11:25:40.308Z,13.15
2023-04-05T11:28:08.640Z,12.40
2023-04-05T11:30:56.692Z,14.48
2023-04-05T11:33:36.155Z,12.80
2023-04-05T11:36:03.078Z,12.90
2023-04-05T11:38:29.530Z,13.85
2023-04-05T11:41:18.102Z,12.73
2023-04-05T11:43:49.985Z,10.88
2023-04-05T11:46:16.515Z,11.75
2023-04-05T11:48:42.858Z,12.48
2023-04-05T11:51:21.574Z,11.25
2023-04-05T12:00:40.488Z,11.52
2023-04-05T12:03:11.276Z,10.65
2023-04-05T12:06:05.075Z,9.80
2023-04-05T12:08:56.493Z,10.63
2023-04-05T12:11:26.159Z,11.27
2023-04-05T12:14:01.856Z,11.25
2023-04-05T12:16:29.216Z,9.55
2023-04-05T12:18:59.459Z,9.68
2023-04-05T12:21:29.348Z,10.43
2023-04-05T12:23:55.870Z,10.63
2023-04-05T12:26:22.447Z,8.63
2023-04-05T12:28:56.073Z,10.32
2023-04-05T12:31:41.475Z,8.98
2023-04-05T12:34:08.791Z,9.52
2023-04-05T12:36:35.596Z,9.02
2023-04-05T12:39:06.227Z,9.77
2023-04-05T12:41:33.889Z,8.10
2023-04-05T12:44:05.321Z,11.20
2023-04-05T12:46:41.539Z,10.23
2023-04-05T12:51:34.098Z,8.57
2023-04-05T12:54:01.628Z,9.02
2023-04-05T12:56:30.891Z,8.60
2023-04-05T12:58:57.268Z,7.13
2023-04-05T13:01:23.745Z,8.18
2023-04-05T13:03:53.406Z,9.27
2023-04-05T13:06:23.149Z,9.00
2023-04-05T13:08:49.390Z,9.07
2023-04-05T13:11:15.820Z,7.97
2023-04-05T13:13:42.112Z,7.40
2023-04-05T13:16:08.696Z,7.60
2023-04-05T13:18:35.063Z,10.13
2023-04-05T13:21:07.479Z,8.15
2023-04-05T13:23:34.301Z,8.27
2023-04-05T13:26:00.726Z,9.23
2023-04-05T13:28:27.311Z,7.53
2023-04-05T13:30:54.622Z,8.65
2023-04-05T13:33:21.082Z,7.63
2023-04-05T13:35:47.938Z,6.90
2023-04-05T13:38:14.212Z,8.55
2023-04-05T13:40:40.579Z,9.07
2023-04-05T13:43:06.930Z,7.90
2023-04-05T13:45:33.194Z,9.07
2023-04-05T13:47:59.699Z,7.95
2023-04-05T13:50:26.026Z,6.43
2023-04-05T13:52:52.365Z,8.00
2023-04-05T13:55:18.783Z,8.05
2023-04-05T13:57:45.331Z,8.52
2023-04-05T14:00:11.987Z,8.25
2023-04-05T14:02:39.135Z,7.72
2023-04-05T14:05:06.285Z,7.80
2023-04-05T14:07:32.678Z,7.10
2023-04-05T14:09:58.985Z,10.18
2023-04-05T14:12:25.256Z,8.43
2023-04-05T14:14:51.531Z,8.15
2023-04-05T14:17:18.032Z,7.65
2023-04-05T14:19:44.360Z,6.97
2023-04-05T14:22:10.716Z,7.45
2023-04-05T14:24:37.053Z,6.97
2023-04-05T14:27:03.385Z,7.43
2023-04-05T14:29:29.859Z,6.43
2023-04-05T14:31:56.564Z,6.55
2023-04-05T14:34:22.908Z,6.03
2023-04-05T14:36:49.649Z,6.03
2023-04-05T14:39:15.944Z,5.32
2023-04-05T14:41:42.292Z,6.28
2023-04-05T14:44:08.748Z,6.50
2023-04-05T14:46:35.091Z,6.22
2023-04-05T14:49:01.558Z,6.30
2023-04-05T14:51:27.894Z,7.80
2023-04-05T14:53:54.196Z,5.53
2023-04-05T14:56:21.112Z,6.80
2023-04-05T14:58:47.498Z,5.22
2023-04-05T15:01:13.886Z,5.78
2023-04-05T15:03:40.445Z,4.85
2023-04-05T15:06:06.906Z,6.18
2023-04-05T15:08:33.226Z,5.25
2023-04-05T15:10:59.619Z,5.80
2023-04-05T15:13:26.786Z,5.45
2023-04-05T15:15:53.367Z,7.45
2023-04-05T15:18:19.686Z,5.55
2023-04-05T15:20:46.002Z,5.47
2023-04-05T15:23:12.367Z,5.28
2023-04-05T15:25:38.826Z,5.25
2023-04-05T15:28:06.942Z,4.60
2023-04-05T15:30:33.595Z,5.30
2023-04-05T15:32:59.969Z,5.35
2023-04-05T15:35:26.412Z,4.50
2023-04-05T15:37:52.742Z,7.63
2023-04-05T15:40:19.525Z,6.18
2023-04-05T15:42:45.914Z,5.95
2023-04-05T15:45:12.393Z,4.70
2023-04-05T15:47:39.601Z,5.35
2023-04-05T15:50:06.315Z,4.25
2023-04-05T15:52:33.355Z,6.30
2023-04-05T15:54:59.663Z,8.13
2023-04-05T15:57:26.084Z,8.10
2023-04-05T15:59:54.327Z,6.25
2023-04-05T16:02:20.635Z,9.20
2023-04-05T16:04:47.015Z,5.45
2023-04-05T16:07:13.408Z,6.25
2023-04-05T16:09:39.745Z,7.57
2023-04-05T16:12:06.029Z,7.63
2023-04-05T16:14:32.833Z,6.45
2023-04-05T16:16:59.216Z,6.35
2023-04-05T16:19:25.675Z,7.05
2023-04-05T16:21:52.905Z,6.95
2023-04-05T16:24:19.975Z,5.00
2023-04-05T16:26:46.267Z,5.65
2023-04-05T16:29:12.531Z,8.15
2023-04-05T16:31:38.954Z,6.32
2023-04-05T16:34:05.323Z,6.18
2023-04-05T16:36:31.661Z,5.90
2023-04-05T16:38:58.072Z,6.07
2023-04-05T16:41:24.410Z,4.70
2023-04-05T16:43:51.261Z,4.65
2023-04-05T16:46:18.462Z,6.78
2023-04-05T16:48:44.764Z,8.32
2023-04-05T16:51:11.182Z,6.50
2023-04-05T16:53:37.739Z,4.85
2023-04-05T16:56:04.253Z,5.63
2023-04-05T16:58:30.658Z,5.80
2023-04-05T17:00:58.858Z,3.85
2023-04-05T17:03:25.859Z,5.03
2023-04-05T17:05:52.476Z,7.43
2023-04-05T17:08:18.862Z,4.32
2023-04-05T17:10:45.169Z,4.72
2023-04-05T17:13:11.551Z,5.35
2023-04-05T17:15:38.427Z,5.70
2023-04-05T17:18:05.837Z,5.47
2023-04-05T17:20:32.173Z,5.57
2023-04-05T17:22:58.530Z,7.43
2023-04-05T17:25:24.915Z,7.50
2023-04-05T17:27:54.053Z,8.52
2023-04-05T17:30:20.647Z,6.75
2023-04-05T17:32:49.645Z,6.15
2023-04-05T17:35:16.202Z,5.75
2023-04-05T17:37:42.467Z,6.78
2023-04-05T17:40:15.585Z,7.63
2023-04-05T17:42:42.119Z,6.97
2023-04-05T17:45:08.708Z,5.72
2023-04-05T17:47:35.725Z,10.70
2023-04-05T17:50:02.130Z,7.68
2023-04-05T17:52:28.464Z,7.80
2023-04-05T17:54:54.802Z,8.25
2023-04-05T17:57:21.096Z,8.52
2023-04-05T17:59:47.432Z,9.85
2023-04-05T18:02:13.891Z,7.70
2023-04-05T18:04:40.929Z,23.83
2023-04-05T18:07:07.965Z,9.43
2023-04-05T18:09:34.729Z,8.50
2023-04-05T18:12:01.546Z,9.85
2023-04-05T18:14:28.032Z,9.77
2023-04-05T18:16:54.295Z,12.38
2023-04-05T18:19:20.636Z,13.20
2023-04-05T18:21:47.022Z,10.68
2023-04-05T18:24:13.950Z,9.27
2023-04-05T18:26:40.202Z,14.60
2023-04-05T18:29:06.733Z,9.50
2023-04-05T18:31:33.240Z,13.63
2023-04-05T18:34:05.907Z,9.82
2023-04-05T18:36:32.370Z,11.25
2023-04-05T18:38:59.874Z,7.15
2023-04-05T18:41:27.178Z,7.60
2023-04-05T18:43:53.930Z,8.98
2023-04-05T18:46:23.771Z,11.95
2023-04-05T18:48:56.292Z,7.28
2023-04-05T18:51:23.173Z,7.35
2023-04-05T18:53:49.977Z,12.10
2023-04-05T18:56:16.352Z,11.80
2023-04-05T18:58:44.387Z,7.93
2023-04-05T19:01:13.101Z,8.77
2023-04-05T19:03:39.862Z,8.75
2023-04-05T19:06:06.248Z,8.70
2023-04-05T19:08:32.697Z,8.70
2023-04-05T19:10:59.052Z,6.97
2023-04-05T19:13:25.361Z,6.47
2023-04-05T19:15:51.834Z,7.97
2023-04-05T19:18:19.598Z,8.52
2023-04-05T19:20:45.965Z,9.00
2023-04-05T19:23:12.282Z,7.55
2023-04-05T19:25:38.635Z,7.68
2023-04-05T19:28:05.045Z,6.82
2023-04-05T19:30:31.401Z,7.90
2023-04-05T19:32:57.750Z,7.47
2023-04-05T19:35:24.106Z,7.65
2023-04-05T19:37:50.837Z,6.60
2023-04-05T19:40:19.231Z,6.53
2023-04-05T19:42:47.508Z,6.72
2023-04-05T19:45:15.180Z,6.15
2023-04-05T19:47:44.268Z,8.02
2023-04-05T19:50:33.614Z,5.55
2023-04-05T19:53:00.254Z,6.28
2023-04-05T19:55:28.317Z,5.22
2023-04-05T19:57:54.814Z,7.10
2023-04-05T20:00:36.122Z,5.97
2023-04-05T20:03:02.734Z,5.68
2023-04-05T20:05:50.466Z,6.53
2023-04-05T20:08:16.873Z,9.93
2023-04-05T20:10:47.654Z,6.10
2023-04-05T20:13:16.975Z,6.38
2023-04-05T20:15:44.783Z,6.60
2023-04-05T20:18:13.849Z,8.32
2023-04-05T20:20:42.635Z,5.85
2023-04-05T20:23:08.898Z,6.80
2023-04-05T20:25:39.364Z,7.82
2023-04-05T20:28:24.548Z,7.28
2023-04-05T20:30:50.962Z,6.03
2023-04-05T20:33:41.350Z,8.63
2023-04-05T20:36:11.297Z,6.53
2023-04-05T20:38:41.162Z,5.78
2023-04-05T20:41:08.351Z,6.78
2023-04-05T20:43:35.094Z,5.40
2023-04-05T20:46:04.906Z,5.10
2023-04-05T20:48:31.683Z,6.32
2023-04-05T20:50:58.457Z,5.90
2023-04-05T20:53:24.820Z,5.00
2023-04-05T20:55:53.973Z,7.18
2023-04-05T20:58:20.767Z,5.65
2023-04-05T21:00:47.496Z,6.35
2023-04-05T21:03:13.881Z,5.70
2023-04-05T21:05:40.474Z,6.85
2023-04-05T21:08:07.103Z,5.22
2023-04-05T21:10:34.139Z,4.75
2023-04-05T21:13:00.811Z,6.35
2023-04-05T21:15:34.524Z,5.80
2023-04-05T21:18:01.763Z,7.55
2023-04-05T21:20:28.289Z,6.25
2023-04-05T21:22:55.254Z,4.95
2023-04-05T21:25:21.931Z,5.82
2023-04-05T21:27:48.577Z,5.00
2023-04-05T21:30:15.054Z,5.00
2023-04-05T21:32:41.826Z,4.82
2023-04-05T21:35:09.005Z,4.75
2023-04-05T21:37:35.312Z,5.32
2023-04-05T21:40:03.759Z,4.90
2023-04-05T21:42:30.346Z,6.45
2023-04-05T21:44:56.721Z,5.18
2023-04-05T21:47:23.490Z,5.40
2023-04-05T21:49:49.973Z,4.70
2023-04-05T21:52:16.318Z,6.15
2023-04-05T21:54:42.724Z,6.20
2023-04-05T21:57:09.001Z,5.40
2023-04-05T21:59:35.329Z,6.07
2023-04-05T22:02:01.795Z,5.07
2023-04-05T22:04:29.071Z,4.72
2023-04-05T22:06:55.662Z,4.47
2023-04-05T22:09:21.920Z,6.13
2023-04-05T22:11:49.483Z,6.15
2023-04-05T22:14:15.947Z,6.43
2023-04-05T22:16:42.459Z,5.65
2023-04-05T22:19:11.673Z,6.00
2023-04-05T22:21:38.886Z,6.68
2023-04-05T22:24:05.473Z,5.18
2023-04-05T22:26:32.440Z,5.40
2023-04-05T22:28:58.853Z,6.75
2023-04-05T22:31:25.388Z,4.38
2023-04-05T22:33:53.216Z,5.97
2023-04-05T22:36:19.526Z,5.20
2023-04-05T22:38:46.016Z,6.15
2023-04-05T22:41:12.421Z,5.72
2023-04-05T22:43:38.714Z,6.43
2023-04-05T22:46:05.265Z,4.78
2023-04-05T22:48:31.669Z,6.30
2023-04-05T22:50:57.978Z,4.57
2023-04-05T22:53:28.251Z,6.18
2023-04-05T22:55:54.547Z,4.70
2023-04-05T22:58:22.451Z,7.40
2023-04-05T23:00:48.750Z,5.70
2023-04-05T23:03:15.013Z,5.40
2023-04-05T23:05:41.519Z,4.60
2023-04-05T23:08:07.782Z,5.30
2023-04-05T23:10:34.037Z,5.97
2023-04-05T23:13:00.420Z,6.20
2023-04-05T23:15:26.742Z,6.60
2023-04-05T23:17:53.163Z,5.03
2023-04-05T23:20:19.510Z,5.50
2023-04-05T23:22:45.877Z,4.90
2023-04-05T23:25:12.359Z,5.15
2023-04-05T23:27:38.683Z,6.18
2023-04-05T23:30:06.074Z,5.22
2023-04-05T23:32:32.393Z,5.25
2023-04-05T23:34:58.703Z,4.95
2023-04-05T23:37:25.169Z,6.15
2023-04-05T23:39:51.452Z,4.70
2023-04-05T23:42:17.753Z,6.32
2023-04-05T23:44:44.077Z,4.93
2023-04-05T23:47:10.413Z,5.32
2023-04-05T23:49:36.694Z,5.47
2023-04-05T23:52:03.015Z,5.43
2023-04-05T23:54:29.294Z,4.47
2023-04-05T23:56:55.850Z,5.80
2023-04-05T23:59:22.182Z,5.95
